createdAt,value
2019-05-13T00:02:21.297Z,1031.73
2019-05-13T00:07:16.841Z,1031.81
2019-05-13T00:12:14.007Z,1031.87
2019-05-13T00:17:09.421Z,1031.88
2019-05-13T00:22:06.039Z,1031.88
2019-05-13T00:27:03.846Z,1031.82
2019-05-13T00:31:59.871Z,1031.85
2019-05-13T00:37:07.841Z,1031.83
2019-05-13T00:41:54.482Z,1031.85
2019-05-13T00:46:50.188Z,1031.94
2019-05-13T00:51:45.796Z,1031.86
2019-05-13T00:56:43.585Z,1031.94
2019-05-13T01:01:38.502Z,1032.04
2019-05-13T01:06:34.330Z,1031.93
2019-05-13T01:11:30.180Z,1031.84
2019-05-13T01:16:26.081Z,1031.84
2019-05-13T01:21:23.852Z,1031.88
2019-05-13T01:26:19.633Z,1031.85
2019-05-13T01:31:15.288Z,1031.94
2019-05-13T01:36:10.772Z,1031.88
2019-05-13T01:41:07.906Z,1031.91
2019-05-13T01:46:04.474Z,1031.90
2019-05-13T01:50:59.922Z,1031.99
2019-05-13T01:55:55.875Z,1032.00
2019-05-13T02:00:54.902Z,1032.00
2019-05-13T02:05:50.054Z,1031.95
2019-05-13T02:10:45.657Z,1032.02
2019-05-13T02:15:41.411Z,1032.04
2019-05-13T02:20:38.137Z,1032.06
2019-05-13T02:25:34.058Z,1032.10
2019-05-13T02:30:30.541Z,1032.05
2019-05-13T02:35:26.173Z,1032.05
2019-05-13T02:40:22.746Z,1032.11
2019-05-13T02:45:18.287Z,1032.16
2019-05-13T02:50:13.903Z,1032.13
2019-05-13T02:55:12.377Z,1032.08
2019-05-13T03:00:07.461Z,1032.08
2019-05-13T03:05:03.517Z,1032.19
2019-05-13T03:09:59.208Z,1032.23
2019-05-13T03:14:55.869Z,1032.39
2019-05-13T03:19:52.951Z,1032.36
2019-05-13T03:24:52.152Z,1032.51
2019-05-13T03:29:46.826Z,1032.50
2019-05-13T03:34:45.631Z,1032.61
2019-05-13T03:39:43.443Z,1032.60
2019-05-13T03:44:42.601Z,1032.59
2019-05-13T03:49:37.151Z,1032.59
2019-05-13T03:54:33.657Z,1032.57
2019-05-13T03:59:32.910Z,1032.66
2019-05-13T04:04:28.293Z,1032.69
2019-05-13T04:09:31.044Z,1032.71
2019-05-13T04:14:23.525Z,1032.56
2019-05-13T04:19:22.939Z,1032.66
2019-05-13T04:24:17.802Z,1032.66
2019-05-13T04:29:13.764Z,1032.72
2019-05-13T04:34:12.402Z,1032.79
2019-05-13T04:39:08.540Z,1032.78
2019-05-13T04:44:06.523Z,1032.76
2019-05-13T04:49:03.305Z,1032.84
2019-05-13T04:53:58.608Z,1032.93
2019-05-13T04:58:54.105Z,1032.96
2019-05-13T05:03:52.788Z,1032.95
2019-05-13T05:08:48.219Z,1033.00
2019-05-13T05:13:44.821Z,1033.11
2019-05-13T05:18:42.212Z,1033.10
2019-05-13T05:23:39.031Z,1033.10
2019-05-13T05:28:34.817Z,1033.15
2019-05-13T05:33:31.914Z,1033.16
2019-05-13T05:38:28.294Z,1033.25
2019-05-13T05:43:25.459Z,1033.21
2019-05-13T05:48:22.640Z,1033.26
2019-05-13T05:53:18.648Z,1033.24
2019-05-13T05:58:14.376Z,1033.31
2019-05-13T06:03:13.756Z,1033.35
2019-05-13T06:08:11.274Z,1033.26
2019-05-13T06:13:06.463Z,1033.26
2019-05-13T06:18:02.338Z,1033.29
2019-05-13T06:22:57.779Z,1033.21
2019-05-13T06:27:53.909Z,1033.27
2019-05-13T06:32:49.455Z,1033.22
2019-05-13T06:37:45.902Z,1033.23
2019-05-13T06:42:42.736Z,1033.21
2019-05-13T06:47:41.304Z,1033.27
2019-05-13T06:52:36.661Z,1033.21
2019-05-13T06:57:33.772Z,1033.23
2019-05-13T07:02:31.844Z,1033.17
2019-05-13T07:07:28.482Z,1033.25
2019-05-13T07:12:23.893Z,1033.14
2019-05-13T07:17:22.285Z,1033.12
2019-05-13T07:22:17.625Z,1033.20
2019-05-13T07:27:14.147Z,1033.27
2019-05-13T07:32:11.992Z,1033.24
2019-05-13T07:37:07.562Z,1033.25
2019-05-13T07:42:05.916Z,1033.21
2019-05-13T07:47:03.613Z,1033.20
2019-05-13T07:52:02.048Z,1033.27
2019-05-13T07:57:01.865Z,1033.23
2019-05-13T08:02:02.173Z,1033.24
2019-05-13T08:07:01.887Z,1033.30
2019-05-13T08:12:06.485Z,1033.25
2019-05-13T08:17:02.292Z,1033.26
2019-05-13T08:22:01.964Z,1033.15
2019-05-13T08:27:01.631Z,1033.19
2019-05-13T08:31:57.289Z,1033.24
2019-05-13T08:36:53.658Z,1033.17
2019-05-13T08:41:51.537Z,1033.12
2019-05-13T08:46:47.125Z,1033.09
2019-05-13T08:51:42.761Z,1032.93
2019-05-13T08:56:38.280Z,1033.12
2019-05-13T09:01:33.023Z,1033.29
2019-05-13T09:06:31.265Z,1033.27
2019-05-13T09:11:24.930Z,1033.00
2019-05-13T09:16:21.601Z,1033.30
2019-05-13T09:21:22.291Z,1033.28
2019-05-13T09:26:18.255Z,1033.27
2019-05-13T09:31:14.260Z,1033.28
2019-05-13T09:36:12.538Z,1033.17
2019-05-13T09:41:08.622Z,1033.10
2019-05-13T09:46:04.880Z,1033.09
2019-05-13T09:51:02.520Z,1033.14
2019-05-13T09:55:58.104Z,1033.18
2019-05-13T10:00:54.001Z,1033.08
2019-05-13T10:05:51.789Z,1033.07
2019-05-13T10:10:47.741Z,1033.02
2019-05-13T10:15:48.517Z,1032.91
2019-05-13T10:20:44.124Z,1032.94
2019-05-13T10:25:39.622Z,1032.83
2019-05-13T10:30:37.020Z,1032.83
2019-05-13T10:35:33.146Z,1032.82
2019-05-13T10:40:31.956Z,1032.70
2019-05-13T10:45:27.981Z,1032.66
2019-05-13T10:50:27.670Z,1032.70
2019-05-13T10:55:22.989Z,1032.55
2019-05-13T11:00:19.106Z,1032.51
2019-05-13T11:05:15.210Z,1032.48
2019-05-13T11:10:13.547Z,1032.40
2019-05-13T11:15:09.821Z,1032.29
2019-05-13T11:20:07.844Z,1032.36
2019-05-13T11:25:04.143Z,1032.31
2019-05-13T11:30:05.440Z,1032.30
2019-05-13T11:35:01.923Z,1032.27
2019-05-13T11:39:57.742Z,1032.31
2019-05-13T11:44:53.838Z,1032.14
2019-05-13T11:49:52.218Z,1032.30
2019-05-13T11:54:47.472Z,1031.97
2019-05-13T11:59:43.908Z,1031.96
2019-05-13T12:04:43.055Z,1031.90
2019-05-13T12:09:38.970Z,1031.76
2019-05-13T12:14:48.437Z,1031.81
2019-05-13T12:19:34.910Z,1031.78
2019-05-13T12:24:30.713Z,1031.61
2019-05-13T12:29:27.243Z,1031.59
2019-05-13T12:34:23.659Z,1031.65
2019-05-13T12:39:18.926Z,1031.58
2019-05-13T12:44:13.254Z,1031.41
2019-05-13T12:49:07.262Z,1031.42
2019-05-13T12:54:04.184Z,1031.52
2019-05-13T12:59:02.947Z,1031.39
2019-05-13T13:03:58.538Z,1031.23
2019-05-13T13:08:55.390Z,1031.33
2019-05-13T13:18:52.701Z,1031.29
2019-05-13T13:23:48.926Z,1031.16
2019-05-13T13:28:44.631Z,1031.11
2019-05-13T13:33:43.412Z,1031.06
2019-05-13T13:38:42.702Z,1031.04
2019-05-13T13:43:42.197Z,1030.90
2019-05-13T13:48:38.004Z,1030.92
2019-05-13T13:53:33.573Z,1030.94
2019-05-13T13:58:29.045Z,1031.03
2019-05-13T14:03:24.805Z,1030.90
2019-05-13T14:07:13.009Z,1031.31
2019-05-13T14:08:21.710Z,1031.00
2019-05-13T14:13:17.210Z,1030.77
2019-05-13T14:18:13.721Z,1030.68
2019-05-13T14:23:12.422Z,1030.65
2019-05-13T14:28:07.066Z,1030.59
2019-05-13T14:33:02.544Z,1030.55
2019-05-13T14:37:59.332Z,1030.54
2019-05-13T14:42:54.913Z,1030.57
2019-05-13T14:47:50.767Z,1030.40
2019-05-13T14:52:46.364Z,1030.34
2019-05-13T14:57:42.737Z,1030.44
2019-05-13T15:02:38.985Z,1030.36
2019-05-13T15:07:34.896Z,1030.28
2019-05-13T15:12:32.257Z,1030.24
2019-05-13T15:17:27.913Z,1030.24
2019-05-13T15:22:23.723Z,1030.28
2019-05-13T15:27:22.273Z,1030.21
2019-05-13T15:32:17.248Z,1030.22
2019-05-13T15:37:13.575Z,1030.14
2019-05-13T15:42:11.847Z,1030.13
2019-05-13T15:47:22.217Z,1030.06
2019-05-13T15:52:08.101Z,1030.20
2019-05-13T15:57:03.331Z,1030.06
2019-05-13T16:02:02.058Z,1030.17
2019-05-13T16:06:57.567Z,1029.94
2019-05-13T16:11:54.081Z,1030.03
2019-05-13T16:16:50.557Z,1030.01
2019-05-13T16:21:46.785Z,1029.87
2019-05-13T16:26:43.060Z,1029.90
2019-05-13T16:31:41.347Z,1029.84
2019-05-13T16:36:36.772Z,1029.83
2019-05-13T16:41:33.549Z,1029.82
2019-05-13T16:46:31.415Z,1029.82
2019-05-13T16:51:26.730Z,1029.85
2019-05-13T16:56:27.696Z,1029.89
2019-05-13T17:01:22.022Z,1029.78
2019-05-13T17:06:17.529Z,1029.91
2019-05-13T17:11:13.345Z,1029.82
2019-05-13T17:16:10.738Z,1029.72
2019-05-13T17:21:06.413Z,1029.69
2019-05-13T17:26:03.309Z,1029.79
2019-05-13T17:30:58.888Z,1029.65
2019-05-13T17:35:54.580Z,1029.72
2019-05-13T17:40:52.944Z,1029.65
2019-05-13T17:45:49.419Z,1029.72
2019-05-13T17:50:45.569Z,1029.73
2019-05-13T17:55:41.469Z,1029.74
2019-05-13T18:00:37.218Z,1029.71
2019-05-13T18:05:33.144Z,1029.72
2019-05-13T18:10:31.781Z,1029.72
2019-05-13T18:15:27.431Z,1029.69
2019-05-13T18:20:23.293Z,1029.67
2019-05-13T18:25:22.163Z,1029.72
2019-05-13T18:35:16.902Z,1029.71
2019-05-13T18:40:12.707Z,1029.79
2019-05-13T18:45:08.547Z,1029.71
2019-05-13T18:50:04.159Z,1029.79
2019-05-13T18:55:02.117Z,1029.80
2019-05-13T18:59:57.577Z,1029.93
2019-05-13T19:04:53.162Z,1029.93
2019-05-13T19:09:48.947Z,1030.06
2019-05-13T19:14:44.602Z,1030.04
2019-05-13T19:19:42.063Z,1030.12
2019-05-13T19:24:37.454Z,1030.10
2019-05-13T19:29:33.595Z,1030.14
2019-05-13T19:34:29.166Z,1030.17
2019-05-13T19:39:25.028Z,1030.15
2019-05-13T19:44:22.069Z,1030.11
2019-05-13T19:49:29.779Z,1030.14
2019-05-13T19:54:17.197Z,1030.10
2019-05-13T19:59:13.005Z,1030.27
2019-05-13T20:04:08.982Z,1030.17
2019-05-13T20:09:04.803Z,1030.31
2019-05-13T20:14:01.553Z,1030.26
2019-05-13T20:18:58.548Z,1030.28
2019-05-13T20:23:54.059Z,1030.26
2019-05-13T20:28:51.331Z,1030.25
2019-05-13T20:33:46.830Z,1030.30
2019-05-13T20:38:42.977Z,1030.40
2019-05-13T20:43:38.776Z,1030.40
2019-05-13T20:48:35.510Z,1030.50
2019-05-13T20:53:31.162Z,1030.55
2019-05-13T20:58:26.955Z,1030.59
2019-05-13T21:03:22.561Z,1030.57
2019-05-13T21:08:18.357Z,1030.54
2019-05-13T21:13:15.089Z,1030.53
2019-05-13T21:18:11.455Z,1030.50
2019-05-13T21:23:06.732Z,1030.55
2019-05-13T21:28:03.371Z,1030.52
2019-05-13T21:32:58.791Z,1030.48
2019-05-13T21:37:54.516Z,1030.62
2019-05-13T21:42:52.453Z,1030.58
2019-05-13T21:47:47.815Z,1030.74
2019-05-13T21:52:43.674Z,1030.66
2019-05-13T21:57:41.455Z,1030.63
2019-05-13T22:02:36.681Z,1030.60
2019-05-13T22:07:33.183Z,1030.57
2019-05-13T22:12:28.892Z,1030.49
2019-05-13T22:17:25.372Z,1030.55
2019-05-13T22:22:22.093Z,1030.56
2019-05-13T22:27:17.821Z,1030.50
2019-05-13T22:32:14.418Z,1030.48
2019-05-13T22:37:11.691Z,1030.41
2019-05-13T22:42:06.664Z,1030.41
2019-05-13T22:47:02.755Z,1030.34
2019-05-13T22:51:58.541Z,1030.32
2019-05-13T22:56:54.220Z,1030.41
2019-05-13T23:01:52.221Z,1030.42
2019-05-13T23:06:47.140Z,1030.29
2019-05-13T23:11:43.728Z,1030.31
2019-05-13T23:16:39.404Z,1030.38
2019-05-13T23:21:35.923Z,1030.40
2019-05-13T23:26:32.819Z,1030.41
2019-05-13T23:31:28.083Z,1030.34
2019-05-13T23:36:23.688Z,1030.32
2019-05-13T23:41:21.659Z,1030.35
2019-05-13T23:46:16.865Z,1030.29
2019-05-13T23:51:13.074Z,1030.32
2019-05-13T23:56:11.110Z,1030.36
